createdAt,value
2023-05-05T00:01:40.262Z,23
2023-05-05T00:06:40.263Z,17
2023-05-05T00:11:40.265Z,23
2023-05-05T00:16:40.255Z,17
2023-05-05T00:21:40.268Z,21
2023-05-05T00:26:40.258Z,20
2023-05-05T00:31:40.271Z,24
2023-05-05T00:36:40.272Z,17
2023-05-05T00:41:40.262Z,19
2023-05-05T00:46:40.275Z,22
2023-05-05T00:51:40.265Z,18
2023-05-05T00:56:40.278Z,15
2023-05-05T01:01:40.279Z,16
2023-05-05T01:06:40.280Z,21
2023-05-05T01:11:40.282Z,18
2023-05-05T01:16:40.272Z,19
2023-05-05T01:21:40.328Z,23
2023-05-05T01:26:40.275Z,14
2023-05-05T01:31:40.287Z,22
2023-05-05T01:36:40.289Z,22
2023-05-05T01:41:40.290Z,23
2023-05-05T01:46:40.292Z,23
2023-05-05T01:51:40.282Z,27
2023-05-05T01:56:40.294Z,21
2023-05-05T02:01:40.285Z,31
2023-05-05T02:06:40.297Z,24
2023-05-05T02:11:40.298Z,22
2023-05-05T02:16:40.289Z,28
2023-05-05T02:21:40.302Z,25
2023-05-05T02:26:40.291Z,24
2023-05-05T02:31:40.304Z,26
2023-05-05T02:36:40.305Z,20
2023-05-05T02:41:40.307Z,27
2023-05-05T02:46:40.309Z,20
2023-05-05T02:51:40.298Z,18
2023-05-05T02:56:40.311Z,19
2023-05-05T03:01:40.301Z,27
2023-05-05T03:06:40.313Z,25
2023-05-05T03:11:40.315Z,27
2023-05-05T03:16:40.305Z,26
2023-05-05T03:21:40.318Z,23
2023-05-05T03:26:40.308Z,22
2023-05-05T03:31:40.320Z,32
2023-05-05T03:36:40.322Z,28
2023-05-05T03:41:40.323Z,29
2023-05-05T03:46:40.325Z,33
2023-05-05T03:51:40.315Z,35
2023-05-05T03:56:40.327Z,32
2023-05-05T04:01:40.317Z,30
2023-05-05T04:06:40.330Z,29
2023-05-05T04:11:40.331Z,40
2023-05-05T04:16:40.357Z,31
2023-05-05T04:21:40.334Z,30
2023-05-05T04:26:40.324Z,28
2023-05-05T04:31:40.336Z,35
2023-05-05T04:36:40.327Z,35
2023-05-05T04:41:40.339Z,35
2023-05-05T04:46:40.340Z,26
2023-05-05T04:51:40.331Z,30
2023-05-05T04:56:40.344Z,32
2023-05-05T05:01:40.334Z,50
2023-05-05T05:06:40.346Z,59
2023-05-05T05:11:40.347Z,70
2023-05-05T05:16:40.349Z,92
2023-05-05T05:21:40.351Z,63
2023-05-05T05:26:40.341Z,68
2023-05-05T05:31:40.354Z,56
2023-05-05T05:36:40.345Z,47
2023-05-05T05:41:40.358Z,63
2023-05-05T05:46:40.359Z,86
2023-05-05T05:51:40.350Z,94
2023-05-05T05:56:40.363Z,81
2023-05-05T06:01:40.354Z,108
2023-05-05T06:06:40.366Z,84
2023-05-05T06:11:40.368Z,80
2023-05-05T06:16:40.370Z,69
2023-05-05T06:21:40.372Z,81
2023-05-05T06:26:40.363Z,94
2023-05-05T06:31:40.376Z,83
2023-05-05T06:36:40.367Z,106
2023-05-05T06:41:40.380Z,70
2023-05-05T06:51:40.373Z,92
2023-05-05T06:56:40.386Z,98
2023-05-05T07:01:40.377Z,123
2023-05-05T07:06:40.390Z,122
2023-05-05T07:11:40.381Z,92
2023-05-05T07:16:40.394Z,120
2023-05-05T07:21:40.396Z,99
2023-05-05T07:26:40.387Z,94
2023-05-05T07:31:40.401Z,111
2023-05-05T07:36:40.391Z,88
2023-05-05T07:41:40.404Z,108
2023-05-05T07:46:40.406Z,111
2023-05-05T07:51:40.409Z,122
2023-05-05T07:56:40.412Z,123
2023-05-05T08:01:40.403Z,131
2023-05-05T08:11:40.407Z,119
2023-05-05T08:16:40.421Z,134
2023-05-05T08:21:40.423Z,123
2023-05-05T08:26:40.415Z,145
2023-05-05T08:31:40.429Z,141
2023-05-05T08:36:40.420Z,145
2023-05-05T08:41:40.433Z,137
2023-05-05T08:46:40.436Z,144
2023-05-05T08:51:40.439Z,143
2023-05-05T08:56:40.442Z,180
2023-05-05T09:01:40.434Z,200
2023-05-05T09:06:40.447Z,158
2023-05-05T09:11:40.439Z,137
2023-05-05T09:16:40.453Z,176
2023-05-05T09:21:40.456Z,153
2023-05-05T09:26:40.447Z,163
2023-05-05T09:31:40.462Z,186
2023-05-05T09:36:40.453Z,171
2023-05-05T09:41:40.467Z,147
2023-05-05T09:46:40.469Z,166
2023-05-05T09:51:40.472Z,145
2023-05-05T09:56:40.476Z,163
2023-05-05T10:01:40.467Z,171
2023-05-05T10:06:40.524Z,186
2023-05-05T10:11:40.472Z,167
2023-05-05T10:16:40.485Z,224
2023-05-05T10:21:40.488Z,168
2023-05-05T10:26:40.490Z,193
2023-05-05T10:31:40.493Z,210
2023-05-05T10:36:40.484Z,181
2023-05-05T10:41:40.498Z,164
2023-05-05T10:46:40.489Z,169
2023-05-05T10:51:40.502Z,193
2023-05-05T10:56:40.505Z,183
2023-05-05T11:01:40.496Z,163
2023-05-05T11:06:40.510Z,203
2023-05-05T11:11:40.501Z,190
2023-05-05T11:16:40.514Z,172
2023-05-05T11:21:40.516Z,130
2023-05-05T11:26:40.519Z,116
2023-05-05T11:31:40.522Z,134
2023-05-05T11:36:40.513Z,147
2023-05-05T11:41:40.526Z,124
2023-05-05T11:46:40.518Z,144
2023-05-05T11:51:40.531Z,149
2023-05-05T11:56:40.534Z,144
2023-05-05T12:01:40.526Z,182
2023-05-05T12:06:40.540Z,156
2023-05-05T12:11:40.531Z,160
2023-05-05T12:16:40.545Z,202
2023-05-05T12:21:40.549Z,179
2023-05-05T12:26:40.551Z,173
2023-05-05T12:31:40.554Z,190
2023-05-05T12:36:40.546Z,163
2023-05-05T12:46:40.551Z,126
2023-05-05T12:51:40.630Z,135
2023-05-05T12:56:40.568Z,130
2023-05-05T13:01:40.612Z,129
2023-05-05T13:06:40.574Z,137
2023-05-05T13:11:40.565Z,145
2023-05-05T13:16:40.579Z,163
2023-05-05T13:21:40.571Z,180
2023-05-05T13:26:40.585Z,156
2023-05-05T13:31:40.587Z,158
2023-05-05T13:36:40.579Z,159
2023-05-05T13:41:40.593Z,147
2023-05-05T13:46:40.584Z,143
2023-05-05T13:51:40.598Z,140
2023-05-05T13:56:40.601Z,114
2023-05-05T14:01:40.604Z,130
2023-05-05T14:06:40.607Z,109
2023-05-05T14:11:40.598Z,111
2023-05-05T14:16:40.611Z,124
2023-05-05T14:21:40.603Z,146
2023-05-05T14:26:40.617Z,194
2023-05-05T14:31:40.619Z,197
2023-05-05T14:36:40.611Z,203
2023-05-05T14:41:40.626Z,176
2023-05-05T14:46:40.617Z,192
2023-05-05T14:51:40.630Z,170
2023-05-05T14:56:40.633Z,173
2023-05-05T15:01:40.635Z,169
2023-05-05T15:06:40.639Z,149
2023-05-05T15:11:40.629Z,148
2023-05-05T15:16:40.695Z,157
2023-05-05T15:21:40.634Z,142
2023-05-05T15:26:40.689Z,134
2023-05-05T15:31:40.650Z,143
2023-05-05T15:36:40.653Z,139
2023-05-05T15:41:40.656Z,136
2023-05-05T15:46:40.647Z,133
2023-05-05T15:51:40.660Z,101
2023-05-05T15:56:40.652Z,124
2023-05-05T16:01:40.665Z,152
2023-05-05T16:06:40.667Z,129
2023-05-05T16:11:40.659Z,148
2023-05-05T16:16:40.672Z,171
2023-05-05T16:21:40.663Z,164
2023-05-05T16:26:40.677Z,138
2023-05-05T16:31:40.679Z,143
2023-05-05T16:36:40.681Z,122
2023-05-05T16:41:40.684Z,102
2023-05-05T16:46:40.675Z,103
2023-05-05T16:51:40.688Z,83
2023-05-05T16:56:40.680Z,97
2023-05-05T17:01:40.693Z,131
2023-05-05T17:06:40.695Z,125
2023-05-05T17:11:40.687Z,117
2023-05-05T17:16:40.700Z,98
2023-05-05T17:21:40.691Z,81
2023-05-05T17:26:40.704Z,80
2023-05-05T17:31:40.706Z,107
2023-05-05T17:36:40.708Z,87
2023-05-05T17:41:40.711Z,79
2023-05-05T17:46:40.702Z,75
2023-05-05T17:51:40.715Z,66
2023-05-05T17:56:40.706Z,64
2023-05-05T18:01:40.719Z,76
2023-05-05T18:06:40.720Z,80
2023-05-05T18:11:40.711Z,66
2023-05-05T18:16:40.725Z,66
2023-05-05T18:21:40.715Z,73
2023-05-05T18:26:40.728Z,65
2023-05-05T18:31:40.719Z,78
2023-05-05T18:36:40.731Z,75
2023-05-05T18:41:40.733Z,79
2023-05-05T18:46:40.724Z,85
2023-05-05T18:51:40.737Z,64
2023-05-05T18:56:40.728Z,71
2023-05-05T19:01:40.740Z,83
2023-05-05T19:06:40.742Z,71
2023-05-05T19:11:40.744Z,77
2023-05-05T19:16:40.747Z,91
2023-05-05T19:21:40.737Z,96
2023-05-05T19:26:40.749Z,92
2023-05-05T19:31:40.740Z,92
2023-05-05T19:36:40.753Z,62
2023-05-05T19:41:40.755Z,60
2023-05-05T19:46:40.746Z,54
2023-05-05T19:51:40.759Z,61
2023-05-05T19:56:40.749Z,42
2023-05-05T20:01:40.762Z,61
2023-05-05T20:06:40.764Z,53
2023-05-05T20:11:40.766Z,69
2023-05-05T20:16:40.768Z,66
2023-05-05T20:21:40.758Z,66
2023-05-05T20:26:40.771Z,45
2023-05-05T20:31:40.762Z,50
2023-05-05T20:36:40.775Z,56
2023-05-05T20:41:40.776Z,50
2023-05-05T20:46:40.767Z,51
2023-05-05T20:51:40.781Z,52
2023-05-05T20:56:40.771Z,62
2023-05-05T21:01:40.783Z,50
2023-05-05T21:06:40.774Z,49
2023-05-05T21:11:40.787Z,32
2023-05-05T21:16:40.789Z,35
2023-05-05T21:21:40.780Z,42
2023-05-05T21:26:40.793Z,41
2023-05-05T21:31:40.783Z,43
2023-05-05T21:36:40.796Z,36
2023-05-05T21:41:40.797Z,40
2023-05-05T21:46:40.799Z,44
2023-05-05T21:51:40.801Z,37
2023-05-05T21:56:40.792Z,46
2023-05-05T22:01:40.804Z,41
2023-05-05T22:06:40.795Z,43
2023-05-05T22:11:40.808Z,50
2023-05-05T22:16:40.809Z,44
2023-05-05T22:21:40.800Z,44
2023-05-05T22:26:40.813Z,59
2023-05-05T22:31:40.804Z,42
2023-05-05T22:36:40.816Z,41
2023-05-05T22:41:40.818Z,30
2023-05-05T22:46:40.820Z,30
2023-05-05T22:51:40.822Z,30
2023-05-05T22:56:40.812Z,31
2023-05-05T23:01:40.825Z,26
2023-05-05T23:06:40.815Z,21
2023-05-05T23:11:40.828Z,22
2023-05-05T23:16:40.830Z,16
2023-05-05T23:21:40.821Z,21
2023-05-05T23:26:40.834Z,17
2023-05-05T23:31:40.824Z,18
2023-05-05T23:36:40.836Z,19
2023-05-05T23:41:40.827Z,24
2023-05-05T23:46:40.840Z,19
2023-05-05T23:51:40.882Z,17
2023-05-05T23:56:40.832Z,24
